Time;durP1;ratioP1;P1;durP2;ratioP2;P2;SDS_P1;SDS_P2;PMS_P1;PMS_P2;Temp;Humidity;BMP_temperature;BMP_pressure;BME280_temperature;BME280_humidity;BME280_pressure;Samples;Min_cycle;Max_cycle;Signal;HPM_P1;HPM_P2
2022/09/06 00:00:13;;;;;;;7.85;3.75;;;;;;;19.49;74.31;99756.38;5022490;28;20049;-69
2022/09/06 00:02:41;;;;;;;10.60;3.35;;;;;;;19.42;74.02;99765.88;5030904;28;20636;-69
2022/09/06 00:05:08;;;;;;;10.32;4.07;;;;;;;19.39;75.30;99758.16;5032004;28;20050;-69
2022/09/06 00:07:36;;;;;;;10.77;4.55;;;;;;;19.32;75.91;99747.16;5031449;28;20049;-69
2022/09/06 00:10:02;;;;;;;8.73;4.50;;;;;;;19.22;76.21;99738.22;5031944;28;20559;-69
2022/09/06 00:12:30;;;;;;;5.63;3.92;;;;;;;19.10;77.49;99750.81;5031674;28;20144;-69
2022/09/06 00:14:57;;;;;;;6.90;4.80;;;;;;;18.97;78.42;99726.13;5031582;28;20063;-68
2022/09/06 00:17:24;;;;;;;8.63;4.35;;;;;;;18.88;79.85;99711.72;5031089;28;20055;-71
2022/09/06 00:19:50;;;;;;;11.05;5.00;;;;;;;18.85;80.63;99717.31;5031609;28;20049;-70
2022/09/06 00:22:17;;;;;;;10.38;4.55;;;;;;;18.79;80.49;99708.00;5031505;28;20556;-69
2022/09/06 00:24:43;;;;;;;11.95;5.18;;;;;;;18.75;80.97;99697.66;5031196;28;20056;-68
2022/09/06 00:27:10;;;;;;;9.40;5.40;;;;;;;18.69;81.34;99698.22;5030717;28;20069;-69
2022/09/06 00:29:38;;;;;;;8.88;4.93;;;;;;;18.64;81.92;99696.75;5031251;28;20143;-69
2022/09/06 00:32:08;;;;;;;7.75;4.15;;;;;;;18.64;81.75;99702.09;5024953;28;20056;-69
2022/09/06 00:34:34;;;;;;;7.43;5.05;;;;;;;18.58;82.38;99691.94;5027261;28;20041;-69
2022/09/06 00:37:01;;;;;;;9.23;4.70;;;;;;;18.54;83.00;99684.31;5030672;28;20057;-68
2022/09/06 00:39:28;;;;;;;12.20;5.55;;;;;;;18.51;84.44;99692.56;5031263;28;20049;-71
2022/09/06 00:41:54;;;;;;;10.70;4.82;;;;;;;18.50;84.89;99689.06;5031312;28;20049;-69
2022/09/06 00:44:21;;;;;;;13.13;4.22;;;;;;;18.51;83.59;99690.78;5031078;28;20080;-68
2022/09/06 00:46:52;;;;;;;9.93;4.80;;;;;;;18.47;84.41;99677.81;5030676;28;20055;-69
2022/09/06 00:49:24;;;;;;;10.88;5.28;;;;;;;18.44;84.83;99673.56;5030802;28;20056;-68
2022/09/06 00:51:53;;;;;;;8.93;5.50;;;;;;;18.42;84.11;99679.03;5030784;28;20065;-68
2022/09/06 00:54:20;;;;;;;8.07;5.22;;;;;;;18.42;85.92;99670.19;5030547;28;20041;-68
2022/09/06 00:56:47;;;;;;;7.28;4.60;;;;;;;18.37;85.29;99667.06;5022502;28;20454;-68
2022/09/06 00:59:15;;;;;;;8.35;4.28;;;;;;;18.35;85.66;99664.50;5030645;28;20064;-68
2022/09/06 01:01:41;;;;;;;7.07;4.60;;;;;;;18.34;85.25;99654.81;5031007;28;20056;-69
2022/09/06 01:04:10;;;;;;;8.70;4.55;;;;;;;18.35;85.70;99656.50;5030663;28;20064;-68
2022/09/06 01:06:48;;;;;;;8.85;4.85;;;;;;;18.34;85.43;99648.63;5030459;28;20045;-68
2022/09/06 01:09:30;;;;;;;6.43;4.15;;;;;;;18.30;86.73;99645.34;5031028;28;20049;-69
2022/09/06 01:12:08;;;;;;;10.15;4.65;;;;;;;18.27;86.93;99645.63;5031057;28;20049;-69
2022/09/06 01:14:44;;;;;;;4.90;4.32;;;;;;;18.24;86.75;99640.53;5030745;28;20045;-69
2022/09/06 01:17:22;;;;;;;10.93;6.30;;;;;;;18.19;87.60;99626.75;5030170;28;20080;-69
2022/09/06 01:20:27;;;;;;;12.52;4.25;;;;;;;18.18;87.37;99633.03;5031003;28;20049;-68
2022/09/06 01:23:33;;;;;;;6.40;4.60;;;;;;;18.16;87.40;99625.19;5007724;28;20485;-68
2022/09/06 01:26:11;;;;;;;8.48;4.22;;;;;;;18.12;87.92;99642.41;5010751;28;20132;-69
2022/09/06 01:28:42;;;;;;;8.68;5.50;;;;;;;18.11;88.20;99638.03;5016238;28;20046;-70
2022/09/06 01:31:20;;;;;;;9.52;5.57;;;;;;;18.03;89.24;99640.50;5039029;28;20053;-68
2022/09/06 01:33:54;;;;;;;8.02;5.22;;;;;;;17.98;91.16;99640.88;5029058;28;20052;-68
2022/09/06 01:36:24;;;;;;;7.43;4.45;;;;;;;17.95;90.63;99633.13;5037996;28;20049;-69
2022/09/06 01:38:51;;;;;;;8.85;5.80;;;;;;;17.95;90.34;99632.28;5043197;28;20084;-69
2022/09/06 01:41:17;;;;;;;7.28;5.35;;;;;;;17.91;89.26;99617.50;5046103;28;20113;-68
2022/09/06 01:43:48;;;;;;;9.55;4.93;;;;;;;17.85;88.79;99628.69;5047718;28;20045;-67
2022/09/06 01:46:19;;;;;;;6.95;5.22;;;;;;;17.77;89.86;99608.78;5048476;28;20109;-67
2022/09/06 01:49:10;;;;;;;9.15;5.97;;;;;;;17.63;91.84;99602.91;5044624;28;20114;-70
2022/09/06 01:51:50;;;;;;;9.68;5.30;;;;;;;17.54;90.99;99610.66;5034463;28;20052;-70
2022/09/06 01:54:28;;;;;;;9.05;5.28;;;;;;;17.49;90.75;99606.66;5023433;28;20498;-68
2022/09/06 01:57:11;;;;;;;6.88;5.05;;;;;;;17.45;91.79;99602.53;5030938;28;20416;-68
2022/09/06 01:59:51;;;;;;;5.63;4.28;;;;;;;17.43;91.21;99608.03;5030448;28;20052;-68
2022/09/06 02:02:25;;;;;;;10.68;4.25;;;;;;;17.44;90.43;99598.19;5029757;28;20079;-68
2022/09/06 02:04:57;;;;;;;12.10;4.43;;;;;;;17.46;90.23;99601.59;5030507;28;20053;-69
2022/09/06 02:07:27;;;;;;;9.50;5.40;;;;;;;17.47;90.63;99604.13;5029441;28;20597;-68
2022/09/06 02:10:01;;;;;;;7.63;5.40;;;;;;;17.47;90.54;99597.94;5029258;28;20053;-69
2022/09/06 02:12:31;;;;;;;6.50;4.90;;;;;;;17.41;89.99;99596.63;5028413;28;20053;-69
2022/09/06 02:15:04;;;;;;;8.43;5.80;;;;;;;17.40;90.20;99592.28;5029396;28;20042;-69
2022/09/06 02:17:34;;;;;;;7.28;5.47;;;;;;;17.40;90.05;99589.63;5028901;28;20050;-68
2022/09/06 02:20:04;;;;;;;5.72;4.75;;;;;;;17.38;90.11;99595.06;5029841;28;20444;-68
2022/09/06 02:22:35;;;;;;;9.55;6.68;;;;;;;17.37;90.93;99582.69;5030030;28;20426;-68
2022/09/06 02:25:04;;;;;;;12.63;8.48;;;;;;;17.27;91.08;99579.06;5029538;28;20042;-68
2022/09/06 02:27:30;;;;;;;10.23;6.72;;;;;;;17.22;91.42;99583.94;5029764;28;20531;-68
2022/09/06 02:30:01;;;;;;;8.70;6.18;;;;;;;17.19;91.35;99570.03;5030145;28;20136;-67
2022/09/06 02:32:30;;;;;;;6.32;5.72;;;;;;;17.17;91.44;99555.00;5020412;28;20096;-69
2022/09/06 02:34:57;;;;;;;11.15;5.95;;;;;;;17.15;90.99;99561.41;5028611;28;20141;-68
2022/09/06 02:37:25;;;;;;;12.23;6.38;;;;;;;17.20;92.57;99559.22;5030208;28;20049;-68
2022/09/06 02:39:53;;;;;;;8.80;6.63;;;;;;;17.21;93.05;99560.94;5030431;28;20116;-68
2022/09/06 02:42:20;;;;;;;10.15;6.65;;;;;;;17.16;92.60;99552.47;5029689;28;20045;-68
2022/09/06 02:44:46;;;;;;;6.00;5.05;;;;;;;17.12;93.41;99557.19;5029297;28;20041;-68
2022/09/06 02:47:15;;;;;;;12.05;7.75;;;;;;;17.15;93.82;99554.28;5028806;28;20496;-68
2022/09/06 02:49:42;;;;;;;15.80;7.28;;;;;;;17.14;94.02;99544.59;5021418;28;20045;-67
2022/09/06 02:52:08;;;;;;;10.80;7.80;;;;;;;17.12;93.45;99543.03;5029141;28;20055;-68
2022/09/06 02:54:35;;;;;;;10.23;7.10;;;;;;;17.10;92.86;99539.63;5028930;28;20051;-68
2022/09/06 02:57:01;;;;;;;7.32;5.50;;;;;;;17.09;92.72;99537.94;5028582;28;20140;-67
2022/09/06 02:59:28;;;;;;;12.98;6.28;;;;;;;17.09;92.57;99544.13;5029064;28;20045;-69
2022/09/06 03:01:54;;;;;;;7.25;4.80;;;;;;;17.10;91.83;99535.13;5029025;28;20148;-67
2022/09/06 03:04:22;;;;;;;8.90;6.40;;;;;;;17.11;91.96;99542.19;5029341;28;20065;-67
2022/09/06 03:06:49;;;;;;;11.05;9.70;;;;;;;17.07;92.53;99531.88;5028385;28;20052;-67
2022/09/06 03:09:15;;;;;;;16.08;9.02;;;;;;;17.04;92.64;99532.16;5028854;28;20050;-69
2022/09/06 03:11:42;;;;;;;9.43;7.25;;;;;;;17.02;92.73;99542.91;5028894;28;20535;-70
2022/09/06 03:14:08;;;;;;;12.68;8.18;;;;;;;17.03;91.98;99535.75;5029531;28;20045;-71
2022/09/06 03:16:35;;;;;;;11.50;6.65;;;;;;;17.01;92.24;99540.38;5032094;28;20516;-67
2022/09/06 03:19:02;;;;;;;9.50;6.53;;;;;;;16.99;91.40;99540.50;5032784;28;20053;-67
2022/09/06 03:21:30;;;;;;;14.00;9.35;;;;;;;16.98;91.62;99528.13;5032439;28;20073;-68
2022/09/06 03:23:58;;;;;;;12.02;8.07;;;;;;;16.95;92.51;99536.38;5032112;28;20049;-70
2022/09/06 03:26:24;;;;;;;9.85;8.27;;;;;;;16.91;93.05;99527.81;5032143;28;20115;-67
2022/09/06 03:28:51;;;;;;;10.57;7.35;;;;;;;16.87;93.85;99536.16;5032748;28;20058;-68
2022/09/06 03:31:17;;;;;;;6.78;5.85;;;;;;;16.85;92.85;99533.59;5032629;28;20053;-67
2022/09/06 03:33:44;;;;;;;11.10;8.20;;;;;;;16.88;93.74;99540.50;5021215;28;20052;-69
2022/09/06 03:36:11;;;;;;;10.13;6.78;;;;;;;16.85;93.04;99540.75;5034301;28;20049;-68
2022/09/06 03:38:38;;;;;;;9.20;7.07;;;;;;;16.76;92.64;99547.63;5032113;28;20507;-70
2022/09/06 03:41:05;;;;;;;8.98;6.55;;;;;;;16.70;92.36;99535.63;5032450;28;20061;-71
2022/09/06 03:43:32;;;;;;;12.00;9.02;;;;;;;16.70;93.62;99540.94;5032193;28;20128;-68
2022/09/06 03:45:59;;;;;;;9.07;6.93;;;;;;;16.69;93.49;99552.56;5023469;28;20050;-68
2022/09/06 03:48:29;;;;;;;8.02;6.45;;;;;;;16.69;93.03;99546.41;5032242;28;20050;-69
2022/09/06 03:50:58;;;;;;;8.80;5.70;;;;;;;16.68;92.55;99553.53;5032428;28;20154;-71
2022/09/06 03:53:26;;;;;;;10.82;5.68;;;;;;;16.70;91.69;99551.59;5031829;28;20075;-71
2022/09/06 03:55:56;;;;;;;9.90;6.40;;;;;;;16.74;92.91;99550.41;5031380;28;20049;-71
2022/09/06 03:58:24;;;;;;;10.10;6.43;;;;;;;16.78;92.98;99543.03;5032057;28;20497;-67
2022/09/06 04:01:00;;;;;;;7.28;4.68;;;;;;;16.81;92.34;99555.25;5031755;28;20053;-68
2022/09/06 04:03:26;;;;;;;;;;;;;;;16.80;92.60;99546.44;5032145;28;20485;-67
2022/09/06 04:05:53;;;;;;;13.00;7.80;;;;;;;16.77;93.23;99548.47;5031350;28;19928;-68
2022/09/06 04:08:19;;;;;;;7.75;6.07;;;;;;;16.80;93.70;99549.09;5031136;28;20580;-69
2022/09/06 04:10:50;;;;;;;15.02;4.88;;;;;;;16.82;92.88;99544.50;5031961;28;20501;-70
2022/09/06 04:13:18;;;;;;;8.93;4.85;;;;;;;16.84;92.79;99545.22;5031617;28;20049;-71
2022/09/06 04:15:45;;;;;;;5.45;4.90;;;;;;;16.86;91.13;99547.75;5030595;28;20193;-67
2022/09/06 04:18:12;;;;;;;15.43;5.78;;;;;;;16.89;92.18;99547.53;5031491;28;20497;-67
2022/09/06 04:20:39;;;;;;;7.53;4.80;;;;;;;16.89;92.26;99545.72;5031649;28;20402;-70
2022/09/06 04:23:06;;;;;;;6.20;3.97;;;;;;;16.92;91.71;99547.28;5031659;28;20524;-68
2022/09/06 04:25:32;;;;;;;6.00;3.95;;;;;;;16.90;91.04;99547.38;5030827;28;20057;-67
2022/09/06 04:27:59;;;;;;;6.13;4.68;;;;;;;16.88;91.63;99538.69;5031090;28;20531;-69
2022/09/06 04:30:27;;;;;;;10.50;6.43;;;;;;;16.82;92.25;99547.16;5031482;28;20053;-69
2022/09/06 04:32:53;;;;;;;7.05;4.47;;;;;;;16.79;92.77;99538.59;5031227;28;20457;-70
2022/09/06 04:35:20;;;;;;;5.47;3.97;;;;;;;16.76;92.85;99544.97;5031281;28;20068;-70
2022/09/06 04:37:47;;;;;;;6.97;5.28;;;;;;;16.76;92.49;99542.31;5030733;28;20045;-69
2022/09/06 04:40:14;;;;;;;8.65;5.50;;;;;;;16.75;92.60;99549.41;5031169;28;20132;-68
2022/09/06 04:42:40;;;;;;;8.00;4.97;;;;;;;16.72;91.86;99536.34;5022745;28;20041;-69
2022/09/06 04:45:08;;;;;;;5.95;4.75;;;;;;;16.69;91.74;99547.25;5031522;28;20057;-68
2022/09/06 04:47:36;;;;;;;6.38;4.95;;;;;;;16.66;91.07;99539.50;5030371;28;20057;-69
2022/09/06 04:50:03;;;;;;;7.13;5.50;;;;;;;16.64;91.42;99546.78;5031043;28;20051;-69
2022/09/06 04:52:29;;;;;;;6.47;5.18;;;;;;;16.63;92.62;99539.72;5031302;28;20049;-68
2022/09/06 04:54:56;;;;;;;6.32;4.95;;;;;;;16.61;93.53;99538.16;5030710;28;20045;-71
2022/09/06 04:57:22;;;;;;;8.50;6.55;;;;;;;16.55;93.23;99544.81;5030091;28;20493;-69
2022/09/06 04:59:49;;;;;;;9.23;5.47;;;;;;;16.48;92.70;99547.09;5030804;28;20493;-67
2022/09/06 05:02:15;;;;;;;7.68;5.82;;;;;;;16.46;92.52;99549.03;5030897;28;20132;-69
2022/09/06 05:04:43;;;;;;;11.18;6.68;;;;;;;16.42;92.17;99544.94;5030815;28;20075;-70
2022/09/06 05:07:10;;;;;;;5.40;4.50;;;;;;;16.41;92.11;99539.72;5029941;28;20189;-70
2022/09/06 05:09:37;;;;;;;5.13;4.40;;;;;;;16.41;92.58;99540.56;5030546;28;20100;-71
2022/09/06 05:12:04;;;;;;;8.65;5.65;;;;;;;16.39;92.00;99539.84;5030921;28;20432;-68
2022/09/06 05:14:30;;;;;;;8.93;5.28;;;;;;;16.39;92.00;99536.31;5030667;28;20592;-69
2022/09/06 05:16:57;;;;;;;8.70;6.13;;;;;;;16.37;91.66;99536.47;5030073;28;20049;-70
2022/09/06 05:19:24;;;;;;;8.15;5.07;;;;;;;16.35;92.48;99541.03;5030722;28;20056;-70
2022/09/06 05:21:52;;;;;;;8.82;5.82;;;;;;;16.29;92.91;99537.06;5030856;28;20144;-70
2022/09/06 05:24:19;;;;;;;6.53;5.38;;;;;;;16.24;93.72;99541.00;5029995;28;20144;-70
2022/09/06 05:26:45;;;;;;;8.18;6.63;;;;;;;16.18;93.62;99545.00;5029730;28;20049;-70
2022/09/06 05:29:12;;;;;;;6.55;4.70;;;;;;;16.14;93.93;99542.69;5030580;28;20052;-71
2022/09/06 05:31:38;;;;;;;6.85;3.38;;;;;;;16.20;93.49;99547.56;5027587;28;20523;-70
2022/09/06 05:34:05;;;;;;;6.47;4.22;;;;;;;16.16;93.43;99546.91;5022346;28;20132;-70
2022/09/06 05:36:32;;;;;;;6.60;4.30;;;;;;;16.17;94.18;99553.09;5029516;28;20042;-68
2022/09/06 05:39:00;;;;;;;5.70;4.43;;;;;;;16.17;93.39;99545.97;5021931;28;20049;-70
2022/09/06 05:41:27;;;;;;;5.32;4.53;;;;;;;16.18;93.56;99552.13;5030282;28;20163;-67
2022/09/06 05:43:54;;;;;;;6.45;4.47;;;;;;;16.19;93.71;99538.69;5032588;28;20067;-68
2022/09/06 05:46:21;;;;;;;5.82;4.07;;;;;;;16.20;93.12;99548.38;5029133;28;20515;-68
2022/09/06 05:48:53;;;;;;;5.05;3.92;;;;;;;16.22;93.35;99543.81;5030062;28;20099;-71
2022/09/06 05:51:20;;;;;;;5.57;4.40;;;;;;;16.21;93.95;99544.75;5029731;28;20056;-71
2022/09/06 05:53:47;;;;;;;6.72;4.63;;;;;;;16.25;93.99;99548.88;5029867;28;20144;-67
2022/09/06 05:56:16;;;;;;;7.75;5.07;;;;;;;16.27;94.38;99535.47;5029138;28;20129;-67
2022/09/06 05:58:42;;;;;;;5.35;4.68;;;;;;;16.31;94.51;99544.91;5029932;28;20085;-68
2022/09/06 06:01:15;;;;;;;5.97;4.47;;;;;;;16.35;94.22;99542.88;5029600;28;20084;-68
2022/09/06 06:03:42;;;;;;;5.35;4.38;;;;;;;16.36;93.70;99533.91;5029650;28;20056;-71
2022/09/06 06:06:09;;;;;;;7.22;4.80;;;;;;;16.42;94.47;99542.28;5028701;28;20049;-68
2022/09/06 06:08:36;;;;;;;7.53;4.10;;;;;;;16.52;94.78;99540.59;5029546;28;20084;-67
2022/09/06 06:11:02;;;;;;;5.25;4.38;;;;;;;16.61;94.38;99540.81;5029852;28;20056;-69
2022/09/06 06:13:33;;;;;;;9.68;5.47;;;;;;;16.65;94.18;99543.13;5029441;28;20053;-68
2022/09/06 06:16:00;;;;;;;5.63;4.40;;;;;;;16.74;94.13;99539.75;5029075;28;20041;-67
2022/09/06 06:18:27;;;;;;;6.65;4.75;;;;;;;16.84;94.53;99539.91;5029514;28;20064;-69
2022/09/06 06:21:07;;;;;;;5.88;4.18;;;;;;;16.92;94.10;99534.81;5029636;28;20075;-68
2022/09/06 06:23:33;;;;;;;7.88;4.70;;;;;;;17.03;94.50;99541.97;5029050;28;20056;-67
2022/09/06 06:26:00;;;;;;;5.13;4.18;;;;;;;17.12;93.67;99537.69;5028642;28;20054;-67
2022/09/06 06:28:27;;;;;;;5.57;4.30;;;;;;;17.22;92.23;99541.31;5029324;28;20051;-69
2022/09/06 06:30:55;;;;;;;5.05;3.88;;;;;;;17.32;92.00;99542.25;5029402;28;20061;-68
2022/09/06 06:33:21;;;;;;;5.15;2.80;;;;;;;17.46;88.75;99545.63;5028704;28;20049;-68
2022/09/06 06:35:57;;;;;;;4.70;2.20;;;;;;;17.64;84.78;99535.25;5012826;28;20052;-68
2022/09/06 06:38:23;;;;;;;;;;;;;;;17.82;83.57;99541.78;5010042;28;20054;-69
2022/09/06 06:40:50;;;;;;;3.20;2.05;;;;;;;17.99;83.69;99543.00;5009530;28;19921;-68
2022/09/06 06:43:16;;;;;;;5.38;1.90;;;;;;;18.12;82.67;99537.50;5009434;28;20061;-68
2022/09/06 06:45:47;;;;;;;3.05;1.67;;;;;;;18.26;80.91;99530.97;5009003;28;20105;-73
2022/09/06 06:48:16;;;;;;;13.52;3.88;;;;;;;18.41;80.48;99537.66;5009620;28;20521;-69
2022/09/06 06:50:42;;;;;;;4.50;2.15;;;;;;;18.56;79.89;99528.38;5012987;28;20052;-70
2022/09/06 06:53:09;;;;;;;5.00;1.70;;;;;;;18.71;78.79;99536.88;5013153;28;20493;-72
2022/09/06 06:55:35;;;;;;;2.10;1.67;;;;;;;18.83;79.03;99529.66;5013512;28;20038;-71
2022/09/06 06:58:02;;;;;;;3.85;1.50;;;;;;;18.96;79.01;99524.06;5015982;28;20513;-69
2022/09/06 07:00:29;;;;;;;4.05;1.85;;;;;;;19.11;77.70;99535.22;5033024;28;20046;-68
2022/09/06 07:02:56;;;;;;;6.32;2.28;;;;;;;19.24;76.62;99525.09;5033169;28;20134;-69
2022/09/06 07:05:24;;;;;;;1.75;1.23;;;;;;;19.38;76.50;99523.88;5033228;28;20136;-69
2022/09/06 07:07:50;;;;;;;4.63;1.90;;;;;;;19.51;75.39;99527.13;5032624;28;20053;-69
2022/09/06 07:10:17;;;;;;;3.55;1.80;;;;;;;19.65;74.81;99525.88;5032568;28;20504;-69
2022/09/06 07:12:44;;;;;;;5.18;2.13;;;;;;;19.79;74.20;99520.16;5032695;28;20064;-69
2022/09/06 07:15:10;;;;;;;3.65;1.67;;;;;;;19.93;74.46;99519.69;5032871;28;20042;-68
2022/09/06 07:17:37;;;;;;;3.67;2.55;;;;;;;20.06;72.94;99521.22;5032011;28;20355;-68
2022/09/06 07:20:04;;;;;;;1.95;1.40;;;;;;;20.21;72.57;99527.00;5032874;28;20079;-69
2022/09/06 07:22:32;;;;;;;4.05;2.25;;;;;;;20.32;73.86;99513.44;5032957;28;20053;-68
2022/09/06 07:24:59;;;;;;;3.60;2.58;;;;;;;20.52;72.13;99515.06;5031917;28;20374;-56
2022/09/06 07:27:25;;;;;;;5.13;2.00;;;;;;;20.79;69.94;99516.97;5031466;28;20416;-53
2022/09/06 07:29:52;;;;;;;2.65;1.85;;;;;;;20.95;69.65;99518.19;5031778;28;20096;-55
2022/09/06 07:32:18;;;;;;;2.22;1.63;;;;;;;21.19;67.99;99522.97;5020088;28;20063;-53
2022/09/06 07:34:45;;;;;;;5.45;1.75;;;;;;;21.40;67.76;99523.59;5031965;28;20060;-57
2022/09/06 07:37:11;;;;;;;3.53;1.70;;;;;;;21.54;67.28;99522.22;5033700;28;20128;-57
2022/09/06 07:39:40;;;;;;;8.23;2.10;;;;;;;21.69;66.16;99521.72;5032069;28;20139;-56
2022/09/06 07:42:07;;;;;;;4.15;1.65;;;;;;;21.84;66.47;99523.69;5032200;28;20045;-57
2022/09/06 07:44:33;;;;;;;6.43;2.08;;;;;;;22.01;65.05;99518.47;5031786;28;20045;-57
2022/09/06 07:47:01;;;;;;;4.53;1.98;;;;;;;22.12;64.88;99515.50;5031544;28;20045;-49
2022/09/06 07:49:28;;;;;;;2.50;1.92;;;;;;;22.28;63.89;99510.31;5031951;28;20408;-50
2022/09/06 07:51:55;;;;;;;6.38;2.45;;;;;;;22.46;64.14;99512.94;5032039;28;20054;-53
2022/09/06 07:54:22;;;;;;;3.95;2.15;;;;;;;22.63;63.11;99513.03;5031676;28;20158;-57
2022/09/06 07:56:50;;;;;;;3.35;1.90;;;;;;;22.77;62.07;99512.44;5032382;28;20041;-53
2022/09/06 07:59:16;;;;;;;2.97;1.88;;;;;;;22.91;61.49;99516.34;5033104;28;20049;-52
2022/09/06 08:01:43;;;;;;;4.10;1.92;;;;;;;23.03;61.15;99509.69;5031046;28;20056;-55
2022/09/06 08:04:11;;;;;;;2.20;1.48;;;;;;;23.22;60.27;99513.13;5031744;28;20055;-58
2022/09/06 08:06:40;;;;;;;1.92;1.30;;;;;;;23.39;59.59;99505.97;5031099;28;20123;-57
2022/09/06 08:09:08;;;;;;;4.38;2.00;;;;;;;23.58;58.53;99516.41;5032770;28;20045;-56
2022/09/06 08:11:36;;;;;;;2.25;1.73;;;;;;;23.73;57.97;99512.09;5033015;28;20144;-56
2022/09/06 08:14:06;;;;;;;10.07;3.25;;;;;;;23.92;58.65;99513.63;5032359;28;20055;-54
2022/09/06 08:16:35;;;;;;;8.95;2.72;;;;;;;24.04;57.65;99507.88;5032947;28;20049;-57
2022/09/06 08:19:06;;;;;;;3.25;2.05;;;;;;;24.12;58.25;99506.03;5032566;28;20060;-54
2022/09/06 08:21:33;;;;;;;2.35;1.60;;;;;;;24.18;56.36;99504.50;5031751;28;20079;-53
2022/09/06 08:24:02;;;;;;;3.03;1.45;;;;;;;24.33;56.00;99504.66;5031176;28;20049;-52
2022/09/06 08:26:30;;;;;;;3.38;1.77;;;;;;;24.44;54.72;99498.91;5025500;28;20088;-51
2022/09/06 08:28:59;;;;;;;2.90;1.50;;;;;;;24.57;55.20;99504.63;5029027;28;20049;-55
2022/09/06 08:31:28;;;;;;;2.28;1.77;;;;;;;24.76;54.58;99516.88;5030905;28;20136;-55
2022/09/06 08:33:55;;;;;;;5.90;1.90;;;;;;;24.89;52.62;99507.41;5030935;28;20483;-59
2022/09/06 08:36:25;;;;;;;5.38;1.55;;;;;;;24.91;50.74;99508.91;5028005;28;20529;-70
2022/09/06 08:38:52;;;;;;;3.70;1.50;;;;;;;24.97;51.02;99505.50;5016292;28;20153;-67
2022/09/06 08:41:26;;;;;;;2.50;1.45;;;;;;;24.99;50.79;99508.03;5011887;28;20514;-68
2022/09/06 08:43:55;;;;;;;3.22;1.77;;;;;;;25.04;50.52;99505.63;5016758;28;20049;-68
2022/09/06 08:46:27;;;;;;;2.72;1.70;;;;;;;25.18;50.04;99507.63;5031875;28;20049;-69
2022/09/06 08:48:55;;;;;;;3.33;1.80;;;;;;;25.24;50.06;99493.41;5032670;28;20145;-70
2022/09/06 08:51:58;;;;;;;2.42;1.70;;;;;;;25.37;49.65;99492.00;5022554;28;20089;-69
2022/09/06 08:54:32;;;;;;;2.90;1.75;;;;;;;25.43;50.39;99494.81;5012527;28;20050;-69
2022/09/06 08:57:09;;;;;;;2.30;1.50;;;;;;;25.56;50.04;99496.94;5011301;28;20046;-69
2022/09/06 08:59:38;;;;;;;5.97;2.10;;;;;;;25.73;48.92;99492.25;5031749;28;20124;-68
2022/09/06 09:02:13;;;;;;;3.75;1.58;;;;;;;25.84;48.92;99490.97;5031714;28;20064;-67
2022/09/06 09:04:43;;;;;;;;;;;;;;;25.95;48.32;99489.75;5031441;28;20045;-68
2022/09/06 09:07:35;;;;;;;4.50;2.00;;;;;;;26.11;47.99;99487.75;5030548;28;20547;-66
2022/09/06 09:10:08;;;;;;;6.60;3.22;;;;;;;26.32;47.41;99494.28;5031303;28;20045;-67
2022/09/06 09:12:43;;;;;;;5.18;1.80;;;;;;;26.44;47.16;99491.97;5030761;28;20479;-67
2022/09/06 09:15:13;;;;;;;5.05;3.15;;;;;;;26.60;46.77;99491.81;5031443;28;20112;-67
2022/09/06 09:17:39;;;;;;;3.47;2.33;;;;;;;26.94;46.25;99493.94;5031307;28;20045;-67
2022/09/06 09:20:09;;;;;;;2.55;2.03;;;;;;;27.49;44.83;99494.41;5032022;28;20056;-69
2022/09/06 09:22:36;;;;;;;4.60;1.90;;;;;;;27.85;43.87;99492.69;5019113;28;20076;-67
2022/09/06 09:25:04;;;;;;;4.07;2.30;;;;;;;28.77;42.23;99483.56;5014047;28;20045;-67
2022/09/06 09:27:33;;;;;;;5.10;2.00;;;;;;;29.94;39.72;99485.19;5011765;28;20134;-67
2022/09/06 09:30:01;;;;;;;3.33;2.35;;;;;;;31.05;37.16;99480.84;5012615;28;20049;-68
2022/09/06 09:32:32;;;;;;;1.95;1.58;;;;;;;31.82;35.08;99474.28;5032612;28;20186;-67
2022/09/06 09:35:19;;;;;;;3.22;2.10;;;;;;;32.64;33.92;99463.31;5030612;28;20141;-67
2022/09/06 09:37:46;;;;;;;4.95;2.25;;;;;;;33.34;32.66;99467.47;5030483;28;20057;-67
2022/09/06 09:40:17;;;;;;;2.72;1.90;;;;;;;33.83;32.18;99478.34;5030337;28;20056;-67
2022/09/06 09:42:44;;;;;;;4.72;2.05;;;;;;;34.00;31.46;99477.41;5030212;28;20098;-68
2022/09/06 09:45:25;;;;;;;4.57;2.33;;;;;;;34.22;30.77;99476.84;5030509;28;20052;-68
2022/09/06 09:47:52;;;;;;;4.75;2.03;;;;;;;34.46;30.70;99485.03;5029818;28;20493;-68
2022/09/06 09:50:27;;;;;;;7.05;2.40;;;;;;;34.84;30.05;99485.38;5029993;28;20051;-68
2022/09/06 09:52:54;;;;;;;3.50;2.28;;;;;;;35.23;29.77;99487.56;5029842;28;20128;-68
2022/09/06 09:55:24;;;;;;;6.53;2.20;;;;;;;35.59;29.13;99490.94;5030129;28;20053;-68
2022/09/06 09:57:53;;;;;;;7.53;2.58;;;;;;;35.77;28.63;99479.78;5029909;28;20045;-68
2022/09/06 10:00:34;;;;;;;4.30;2.13;;;;;;;35.67;28.31;99482.38;5030190;28;20057;-68
2022/09/06 10:03:01;;;;;;;4.22;2.00;;;;;;;35.29;28.43;99477.50;5030108;28;20052;-68
2022/09/06 10:05:29;;;;;;;4.25;1.73;;;;;;;35.67;27.94;99480.44;5030052;28;20065;-69
2022/09/06 10:07:58;;;;;;;8.23;3.08;;;;;;;35.78;27.40;99470.47;5029817;28;20053;-67
2022/09/06 10:10:27;;;;;;;6.70;2.00;;;;;;;35.80;26.94;99468.31;5029531;28;20056;-68
2022/09/06 10:13:07;;;;;;;4.88;2.30;;;;;;;35.81;26.13;99464.50;5029600;28;20060;-68
2022/09/06 10:15:35;;;;;;;3.33;2.35;;;;;;;35.62;26.34;99461.16;5010124;28;20572;-68
2022/09/06 10:18:03;;;;;;;4.78;2.10;;;;;;;36.06;26.40;99458.59;5022817;28;20053;-67
2022/09/06 10:20:39;;;;;;;7.80;2.65;;;;;;;36.30;25.95;99463.91;5016227;28;20468;-68
2022/09/06 10:23:15;;;;;;;5.10;2.25;;;;;;;36.21;24.71;99463.50;5010000;28;20438;-67
2022/09/06 10:25:45;;;;;;;7.38;1.85;;;;;;;35.92;24.88;99462.75;5009667;28;20054;-68
2022/09/06 10:28:37;;;;;;;5.53;2.10;;;;;;;36.02;24.89;99453.84;5010158;28;20516;-68
2022/09/06 10:31:30;;;;;;;4.38;1.80;;;;;;;36.01;24.60;99458.50;5010323;28;20054;-68
2022/09/06 10:34:19;;;;;;;5.57;1.77;;;;;;;36.25;24.72;99453.66;5020899;28;20054;-68
2022/09/06 10:36:55;;;;;;;4.43;2.00;;;;;;;36.39;24.61;99456.06;5029282;28;20068;-68
2022/09/06 10:39:45;;;;;;;5.10;2.45;;;;;;;36.16;24.49;99468.06;5029846;28;20053;-68
2022/09/06 10:42:23;;;;;;;4.78;2.08;;;;;;;35.43;25.08;99470.66;5029636;28;20053;-68
2022/09/06 10:45:03;;;;;;;9.95;2.08;;;;;;;34.62;25.45;99470.66;5029478;28;20057;-67
2022/09/06 10:47:34;;;;;;;2.17;1.60;;;;;;;34.04;26.40;99463.25;5029107;28;20473;-69
2022/09/06 10:50:04;;;;;;;3.53;2.13;;;;;;;33.69;27.45;99475.78;5029580;28;20056;-67
2022/09/06 10:52:37;;;;;;;5.45;2.20;;;;;;;33.32;28.38;99466.88;5029701;28;20049;-68
2022/09/06 10:55:08;;;;;;;3.83;2.03;;;;;;;32.98;27.71;99471.91;5029504;28;20067;-68
2022/09/06 10:57:38;;;;;;;3.08;1.75;;;;;;;32.53;28.43;99474.97;5028916;28;20048;-67
2022/09/06 11:00:11;;;;;;;6.00;2.67;;;;;;;32.14;29.14;99473.44;5029558;28;20056;-67
2022/09/06 11:02:44;;;;;;;3.65;2.13;;;;;;;31.95;29.67;99476.13;5025273;28;20487;-68
2022/09/06 11:05:12;;;;;;;5.75;1.92;;;;;;;31.64;29.84;99474.22;5020765;28;20053;-66
2022/09/06 11:07:43;;;;;;;3.65;1.70;;;;;;;31.41;29.96;99470.19;5029160;28;20405;-67
2022/09/06 11:10:18;;;;;;;7.97;2.05;;;;;;;31.06;27.44;99477.03;5028455;28;20501;-68
2022/09/06 11:12:50;;;;;;;2.65;1.60;;;;;;;30.91;26.75;99467.25;5028931;28;20527;-67
2022/09/06 11:15:18;;;;;;;5.15;1.70;;;;;;;30.77;27.92;99463.75;5017330;28;20468;-69
2022/09/06 11:17:51;;;;;;;5.32;1.77;;;;;;;30.78;28.20;99464.56;5009213;28;20046;-67
2022/09/06 11:20:22;;;;;;;6.30;3.05;;;;;;;30.70;28.94;99460.19;5009439;28;20105;-67
2022/09/06 11:23:13;;;;;;;3.60;1.58;;;;;;;30.67;29.83;99470.66;5018902;28;20431;-69
2022/09/06 11:26:08;;;;;;;3.60;1.90;;;;;;;30.69;28.72;99466.72;5024149;28;20076;-69
2022/09/06 11:28:39;;;;;;;4.82;1.83;;;;;;;30.74;28.82;99466.91;5032113;28;20046;-68
2022/09/06 11:31:10;;;;;;;5.93;1.80;;;;;;;30.51;26.62;99463.81;5048621;28;20049;-69
2022/09/06 11:33:38;;;;;;;2.92;1.70;;;;;;;30.47;27.03;99466.13;5029618;28;20049;-68
2022/09/06 11:36:27;;;;;;;3.85;2.55;;;;;;;30.50;26.54;99470.31;5030711;28;20442;-67
2022/09/06 11:38:57;;;;;;;2.90;1.30;;;;;;;30.42;25.08;99476.78;5032301;28;20068;-69
2022/09/06 11:41:30;;;;;;;2.58;1.60;;;;;;;30.44;26.89;99473.88;5032146;28;20397;-69
2022/09/06 11:43:57;;;;;;;3.58;1.90;;;;;;;30.46;28.03;99469.91;5032348;28;20057;-69